11:24
Airports
History
Links
Donate
Help keep this website running!
PayPal
Bitcoin
This page is community maintained. The information is intended for PC simulator navigation or reference.
Always use approved charts for navigation.
LILV
Valbrembo
Valbrembo (LILV)
Valbrembo, Lombardia, Italy (24030)
4
Lat/Lng:45° 43' 12" N / 9° 35' 38" E
45.720001 / 9.593889
Elevation:755'ft / 230mMSL
ID / ICAO:LILV
Runways:1
Longest:02-20
Grass 692m / 2,270ft
Nearby Weather10:50 GMT 2017-12-11
Nearby weather at LIME, Bergamo Orio Al Serio located 6.4 nautical miles from LILV
Altimeter: 29.50
Visibility: 0.9 statute miles
Wind: 4 knots (from 250°)
Temp: 1°c / 34°f
Humidity: 100.0%

METAR: LIME 111050Z 25004KT 180V290 1500 RA BR SCT005 BKN030 01/01 Q0999 28290095 NOSIG

(Powered by phpweather)
Nearby VORs <50NM
Nearby NDBs
Runway 02 / 20
Dimensions:692 x 50m 2270' x 164'ft
Surface:Grass
Runway 02 [A]Runway 20 [B]
Heading:020°TH 200°TH
Lat:
Lng:
45° 43' 1.35"N
9° 35' 32.45"E
45° 43' 22.66"N
9° 35' 43.55"E
User Notes and Comments
45° 43' 12" N / 9° 35' 38" E
Distance To
Airport ID:
Nearby Airports
(C) Bergamo Orio Al Serio 6.4 NM
LIME ( WX ) ESE 121°
(U) Alzate Brianza 21.1 NM
LILB W 279°
(U) Bresso 22.6 NM
LIMB SW 236°
(C) Milano Linate 24.5 NM
LIML ( WX ) SW 219°
(U) Sondrio Caiolo 30.3 NM
LILO N 11°
(U) VENEGONO 34.1 NM
LILN W 272°
(C) GHEDI 38.2 NM
LIPL ( WX ) ESE 121°
VFR Chart
Flight Planning at SkyVector.com